sensor_id;sensor_type;location;lat;lon;timestamp;P1;durP1;ratioP1;P2;durP2;ratioP2
18905;SDS011;9585;51.018;4.282;2022-09-09T00:00:32;3.95;;;1.50;;
18905;SDS011;9585;51.018;4.282;2022-09-09T00:03:05;2.70;;;1.42;;
18905;SDS011;9585;51.018;4.282;2022-09-09T00:05:39;4.40;;;1.50;;
18905;SDS011;9585;51.018;4.282;2022-09-09T00:08:17;3.80;;;1.73;;
18905;SDS011;9585;51.018;4.282;2022-09-09T00:10:47;5.75;;;1.70;;
18905;SDS011;9585;51.018;4.282;2022-09-09T00:13:30;6.00;;;1.70;;
18905;SDS011;9585;51.018;4.282;2022-09-09T00:16:08;3.63;;;1.25;;
18905;SDS011;9585;51.018;4.282;2022-09-09T00:18:55;4.65;;;1.80;;
18905;SDS011;9585;51.018;4.282;2022-09-09T00:21:38;5.00;;;1.40;;
18905;SDS011;9585;51.018;4.282;2022-09-09T00:24:11;2.95;;;1.60;;
18905;SDS011;9585;51.018;4.282;2022-09-09T00:26:44;3.25;;;1.40;;
18905;SDS011;9585;51.018;4.282;2022-09-09T00:29:35;3.42;;;1.60;;
18905;SDS011;9585;51.018;4.282;2022-09-09T00:32:12;4.40;;;1.60;;
18905;SDS011;9585;51.018;4.282;2022-09-09T00:34:46;5.57;;;1.50;;
18905;SDS011;9585;51.018;4.282;2022-09-09T00:37:30;4.07;;;1.60;;
18905;SDS011;9585;51.018;4.282;2022-09-09T00:40:18;4.05;;;1.63;;
18905;SDS011;9585;51.018;4.282;2022-09-09T00:42:58;5.45;;;1.85;;
18905;SDS011;9585;51.018;4.282;2022-09-09T00:48:53;3.75;;;2.30;;
18905;SDS011;9585;51.018;4.282;2022-09-09T00:51:34;6.85;;;3.08;;
18905;SDS011;9585;51.018;4.282;2022-09-09T00:54:26;4.85;;;2.30;;
18905;SDS011;9585;51.018;4.282;2022-09-09T00:57:04;6.22;;;2.92;;
18905;SDS011;9585;51.018;4.282;2022-09-09T00:59:44;4.53;;;2.40;;
18905;SDS011;9585;51.018;4.282;2022-09-09T01:05:11;5.22;;;3.33;;
18905;SDS011;9585;51.018;4.282;2022-09-09T01:07:44;5.05;;;3.10;;
18905;SDS011;9585;51.018;4.282;2022-09-09T01:10:17;6.72;;;3.03;;
18905;SDS011;9585;51.018;4.282;2022-09-09T01:12:54;6.63;;;3.47;;
18905;SDS011;9585;51.018;4.282;2022-09-09T01:15:27;7.15;;;3.17;;
18905;SDS011;9585;51.018;4.282;2022-09-09T01:18:04;7.05;;;3.50;;
18905;SDS011;9585;51.018;4.282;2022-09-09T01:20:37;6.55;;;3.08;;
18905;SDS011;9585;51.018;4.282;2022-09-09T01:23:22;7.25;;;3.25;;
18905;SDS011;9585;51.018;4.282;2022-09-09T01:26:12;6.78;;;3.10;;
18905;SDS011;9585;51.018;4.282;2022-09-09T01:28:46;5.90;;;2.72;;
18905;SDS011;9585;51.018;4.282;2022-09-09T01:31:17;8.00;;;3.45;;
18905;SDS011;9585;51.018;4.282;2022-09-09T01:33:48;5.57;;;2.90;;
18905;SDS011;9585;51.018;4.282;2022-09-09T01:36:19;7.88;;;3.15;;
18905;SDS011;9585;51.018;4.282;2022-09-09T01:38:51;5.07;;;2.40;;
18905;SDS011;9585;51.018;4.282;2022-09-09T01:41:21;5.18;;;2.88;;
18905;SDS011;9585;51.018;4.282;2022-09-09T01:43:48;6.57;;;2.70;;
18905;SDS011;9585;51.018;4.282;2022-09-09T01:46:17;7.82;;;2.55;;
18905;SDS011;9585;51.018;4.282;2022-09-09T01:48:50;6.55;;;2.50;;
18905;SDS011;9585;51.018;4.282;2022-09-09T01:51:19;5.15;;;2.20;;
18905;SDS011;9585;51.018;4.282;2022-09-09T01:53:46;4.03;;;2.05;;
18905;SDS011;9585;51.018;4.282;2022-09-09T01:56:18;5.38;;;2.45;;
18905;SDS011;9585;51.018;4.282;2022-09-09T02:01:48;3.38;;;1.70;;
18905;SDS011;9585;51.018;4.282;2022-09-09T02:04:30;5.22;;;2.10;;
18905;SDS011;9585;51.018;4.282;2022-09-09T02:07:03;4.40;;;1.70;;
18905;SDS011;9585;51.018;4.282;2022-09-09T02:09:37;6.50;;;1.90;;
18905;SDS011;9585;51.018;4.282;2022-09-09T02:12:13;6.10;;;2.00;;
18905;SDS011;9585;51.018;4.282;2022-09-09T02:14:46;4.40;;;1.48;;
18905;SDS011;9585;51.018;4.282;2022-09-09T02:17:17;3.95;;;1.63;;
18905;SDS011;9585;51.018;4.282;2022-09-09T02:19:51;4.95;;;1.70;;
18905;SDS011;9585;51.018;4.282;2022-09-09T02:22:23;4.55;;;1.60;;
18905;SDS011;9585;51.018;4.282;2022-09-09T02:24:54;5.53;;;1.80;;
18905;SDS011;9585;51.018;4.282;2022-09-09T02:27:27;4.90;;;1.75;;
18905;SDS011;9585;51.018;4.282;2022-09-09T02:29:56;7.00;;;1.88;;
18905;SDS011;9585;51.018;4.282;2022-09-09T02:32:25;5.18;;;1.80;;
18905;SDS011;9585;51.018;4.282;2022-09-09T02:34:56;5.05;;;1.70;;
18905;SDS011;9585;51.018;4.282;2022-09-09T02:37:36;6.15;;;1.63;;
18905;SDS011;9585;51.018;4.282;2022-09-09T02:40:16;9.15;;;1.85;;
18905;SDS011;9585;51.018;4.282;2022-09-09T02:42:48;4.55;;;2.15;;
18905;SDS011;9585;51.018;4.282;2022-09-09T02:45:18;5.40;;;1.77;;
18905;SDS011;9585;51.018;4.282;2022-09-09T02:47:49;4.47;;;1.55;;
18905;SDS011;9585;51.018;4.282;2022-09-09T02:50:23;5.05;;;1.75;;
18905;SDS011;9585;51.018;4.282;2022-09-09T02:52:58;6.68;;;2.22;;
18905;SDS011;9585;51.018;4.282;2022-09-09T02:55:36;8.45;;;2.03;;
18905;SDS011;9585;51.018;4.282;2022-09-09T02:58:09;4.43;;;2.00;;
18905;SDS011;9585;51.018;4.282;2022-09-09T03:00:42;9.77;;;1.95;;
18905;SDS011;9585;51.018;4.282;2022-09-09T03:03:15;4.53;;;1.65;;
18905;SDS011;9585;51.018;4.282;2022-09-09T03:05:43;5.93;;;1.60;;
18905;SDS011;9585;51.018;4.282;2022-09-09T03:08:11;6.28;;;2.00;;
18905;SDS011;9585;51.018;4.282;2022-09-09T03:10:47;6.00;;;2.08;;
18905;SDS011;9585;51.018;4.282;2022-09-09T03:13:19;7.28;;;2.10;;
18905;SDS011;9585;51.018;4.282;2022-09-09T03:15:47;8.13;;;2.10;;
18905;SDS011;9585;51.018;4.282;2022-09-09T03:18:17;6.43;;;2.03;;
18905;SDS011;9585;51.018;4.282;2022-09-09T03:20:45;4.57;;;1.90;;
18905;SDS011;9585;51.018;4.282;2022-09-09T03:23:13;6.43;;;1.90;;
18905;SDS011;9585;51.018;4.282;2022-09-09T03:25:45;6.85;;;1.90;;
18905;SDS011;9585;51.018;4.282;2022-09-09T03:28:15;5.85;;;1.60;;
18905;SDS011;9585;51.018;4.282;2022-09-09T03:30:47;7.63;;;2.05;;
18905;SDS011;9585;51.018;4.282;2022-09-09T03:33:16;7.47;;;1.95;;
18905;SDS011;9585;51.018;4.282;2022-09-09T03:35:45;4.93;;;1.80;;
18905;SDS011;9585;51.018;4.282;2022-09-09T03:38:13;5.90;;;2.00;;
18905;SDS011;9585;51.018;4.282;2022-09-09T03:40:47;5.93;;;1.98;;
18905;SDS011;9585;51.018;4.282;2022-09-09T03:43:16;6.32;;;2.08;;
18905;SDS011;9585;51.018;4.282;2022-09-09T03:45:46;7.95;;;2.10;;
18905;SDS011;9585;51.018;4.282;2022-09-09T03:48:15;5.68;;;1.88;;
18905;SDS011;9585;51.018;4.282;2022-09-09T03:50:44;8.27;;;2.22;;
18905;SDS011;9585;51.018;4.282;2022-09-09T03:53:12;7.38;;;1.95;;
18905;SDS011;9585;51.018;4.282;2022-09-09T03:55:45;6.75;;;1.85;;
18905;SDS011;9585;51.018;4.282;2022-09-09T03:58:14;9.00;;;2.40;;
18905;SDS011;9585;51.018;4.282;2022-09-09T04:00:43;9.73;;;2.08;;
18905;SDS011;9585;51.018;4.282;2022-09-09T04:03:18;8.98;;;2.10;;
18905;SDS011;9585;51.018;4.282;2022-09-09T04:05:48;5.90;;;1.88;;
18905;SDS011;9585;51.018;4.282;2022-09-09T04:08:15;8.48;;;2.13;;
18905;SDS011;9585;51.018;4.282;2022-09-09T04:10:44;7.53;;;1.65;;
18905;SDS011;9585;51.018;4.282;2022-09-09T04:13:12;6.93;;;1.90;;
18905;SDS011;9585;51.018;4.282;2022-09-09T04:15:42;6.32;;;1.85;;
18905;SDS011;9585;51.018;4.282;2022-09-09T04:18:18;12.73;;;2.20;;
18905;SDS011;9585;51.018;4.282;2022-09-09T04:20:46;9.32;;;1.85;;
18905;SDS011;9585;51.018;4.282;2022-09-09T04:23:14;7.70;;;1.80;;
18905;SDS011;9585;51.018;4.282;2022-09-09T04:25:43;7.68;;;2.10;;
18905;SDS011;9585;51.018;4.282;2022-09-09T04:28:12;4.53;;;2.00;;
18905;SDS011;9585;51.018;4.282;2022-09-09T04:30:43;4.55;;;1.52;;
18905;SDS011;9585;51.018;4.282;2022-09-09T04:33:11;7.03;;;1.80;;
18905;SDS011;9585;51.018;4.282;2022-09-09T04:35:43;7.55;;;1.95;;
18905;SDS011;9585;51.018;4.282;2022-09-09T04:38:12;6.82;;;1.90;;
18905;SDS011;9585;51.018;4.282;2022-09-09T04:40:39;7.25;;;2.10;;
18905;SDS011;9585;51.018;4.282;2022-09-09T04:43:13;9.95;;;2.13;;
18905;SDS011;9585;51.018;4.282;2022-09-09T04:45:40;5.22;;;1.85;;
18905;SDS011;9585;51.018;4.282;2022-09-09T04:48:08;7.32;;;1.90;;
18905;SDS011;9585;51.018;4.282;2022-09-09T04:50:36;5.78;;;2.00;;
18905;SDS011;9585;51.018;4.282;2022-09-09T04:53:05;9.05;;;2.10;;
18905;SDS011;9585;51.018;4.282;2022-09-09T04:55:33;7.45;;;1.80;;
18905;SDS011;9585;51.018;4.282;2022-09-09T04:58:03;8.68;;;2.47;;
18905;SDS011;9585;51.018;4.282;2022-09-09T05:00:31;7.38;;;1.95;;
18905;SDS011;9585;51.018;4.282;2022-09-09T05:03:02;10.07;;;2.10;;
18905;SDS011;9585;51.018;4.282;2022-09-09T05:05:30;8.18;;;2.20;;
18905;SDS011;9585;51.018;4.282;2022-09-09T05:08:00;9.68;;;2.13;;
18905;SDS011;9585;51.018;4.282;2022-09-09T05:10:30;10.15;;;2.40;;
18905;SDS011;9585;51.018;4.282;2022-09-09T05:12:58;7.95;;;2.00;;
18905;SDS011;9585;51.018;4.282;2022-09-09T05:15:26;8.95;;;2.03;;
18905;SDS011;9585;51.018;4.282;2022-09-09T05:17:57;8.50;;;2.03;;
18905;SDS011;9585;51.018;4.282;2022-09-09T05:20:25;11.18;;;2.17;;
18905;SDS011;9585;51.018;4.282;2022-09-09T05:22:53;4.78;;;1.98;;
18905;SDS011;9585;51.018;4.282;2022-09-09T05:25:20;7.40;;;2.10;;
18905;SDS011;9585;51.018;4.282;2022-09-09T05:27:51;5.65;;;1.65;;
18905;SDS011;9585;51.018;4.282;2022-09-09T05:30:23;9.05;;;2.00;;
18905;SDS011;9585;51.018;4.282;2022-09-09T05:32:51;7.00;;;1.88;;
18905;SDS011;9585;51.018;4.282;2022-09-09T05:35:18;7.45;;;1.80;;
18905;SDS011;9585;51.018;4.282;2022-09-09T05:37:46;9.40;;;2.30;;
18905;SDS011;9585;51.018;4.282;2022-09-09T05:40:13;5.43;;;1.67;;
18905;SDS011;9585;51.018;4.282;2022-09-09T05:42:42;8.88;;;2.15;;
18905;SDS011;9585;51.018;4.282;2022-09-09T05:45:11;7.80;;;2.22;;
18905;SDS011;9585;51.018;4.282;2022-09-09T05:47:38;7.05;;;1.90;;
18905;SDS011;9585;51.018;4.282;2022-09-09T05:50:06;5.70;;;1.70;;
18905;SDS011;9585;51.018;4.282;2022-09-09T05:52:34;8.07;;;1.67;;
18905;SDS011;9585;51.018;4.282;2022-09-09T05:55:01;7.05;;;2.20;;
18905;SDS011;9585;51.018;4.282;2022-09-09T05:57:29;5.90;;;1.58;;
18905;SDS011;9585;51.018;4.282;2022-09-09T05:59:57;7.28;;;1.67;;
18905;SDS011;9585;51.018;4.282;2022-09-09T06:02:26;5.68;;;1.88;;
18905;SDS011;9585;51.018;4.282;2022-09-09T06:04:53;6.05;;;2.00;;
18905;SDS011;9585;51.018;4.282;2022-09-09T06:07:20;6.97;;;1.67;;
18905;SDS011;9585;51.018;4.282;2022-09-09T06:09:48;7.43;;;2.20;;
18905;SDS011;9585;51.018;4.282;2022-09-09T06:12:16;7.13;;;2.10;;
18905;SDS011;9585;51.018;4.282;2022-09-09T06:14:46;6.95;;;1.83;;
18905;SDS011;9585;51.018;4.282;2022-09-09T06:17:18;8.00;;;1.52;;
18905;SDS011;9585;51.018;4.282;2022-09-09T06:19:47;6.07;;;1.83;;
18905;SDS011;9585;51.018;4.282;2022-09-09T06:22:17;9.50;;;2.10;;
18905;SDS011;9585;51.018;4.282;2022-09-09T06:24:47;7.70;;;1.65;;
18905;SDS011;9585;51.018;4.282;2022-09-09T06:27:16;8.27;;;1.60;;
18905;SDS011;9585;51.018;4.282;2022-09-09T06:29:43;4.28;;;1.55;;
18905;SDS011;9585;51.018;4.282;2022-09-09T06:32:10;5.05;;;1.77;;
18905;SDS011;9585;51.018;4.282;2022-09-09T06:34:37;8.50;;;1.90;;
18905;SDS011;9585;51.018;4.282;2022-09-09T06:37:09;5.72;;;1.70;;
18905;SDS011;9585;51.018;4.282;2022-09-09T06:39:36;4.80;;;1.73;;
18905;SDS011;9585;51.018;4.282;2022-09-09T06:42:04;8.65;;;1.98;;
18905;SDS011;9585;51.018;4.282;2022-09-09T06:44:34;8.20;;;1.65;;
18905;SDS011;9585;51.018;4.282;2022-09-09T06:47:01;4.25;;;1.42;;
18905;SDS011;9585;51.018;4.282;2022-09-09T06:49:30;7.55;;;2.03;;
18905;SDS011;9585;51.018;4.282;2022-09-09T06:51:57;6.60;;;1.50;;
18905;SDS011;9585;51.018;4.282;2022-09-09T06:54:29;6.85;;;1.83;;
18905;SDS011;9585;51.018;4.282;2022-09-09T06:56:56;4.65;;;1.40;;
18905;SDS011;9585;51.018;4.282;2022-09-09T06:59:25;5.70;;;1.33;;
18905;SDS011;9585;51.018;4.282;2022-09-09T07:01:53;5.30;;;1.60;;
18905;SDS011;9585;51.018;4.282;2022-09-09T07:04:20;6.95;;;1.63;;
18905;SDS011;9585;51.018;4.282;2022-09-09T07:06:48;5.38;;;1.35;;
18905;SDS011;9585;51.018;4.282;2022-09-09T07:09:17;4.38;;;1.50;;
18905;SDS011;9585;51.018;4.282;2022-09-09T07:11:48;6.22;;;1.50;;
18905;SDS011;9585;51.018;4.282;2022-09-09T07:14:18;8.30;;;1.58;;
18905;SDS011;9585;51.018;4.282;2022-09-09T07:16:46;7.88;;;1.75;;
18905;SDS011;9585;51.018;4.282;2022-09-09T07:19:13;6.82;;;1.40;;
18905;SDS011;9585;51.018;4.282;2022-09-09T07:21:41;9.65;;;1.90;;
18905;SDS011;9585;51.018;4.282;2022-09-09T07:24:09;5.35;;;1.17;;
18905;SDS011;9585;51.018;4.282;2022-09-09T07:26:38;6.22;;;1.42;;
18905;SDS011;9585;51.018;4.282;2022-09-09T07:29:09;7.53;;;1.70;;
18905;SDS011;9585;51.018;4.282;2022-09-09T07:31:39;7.10;;;1.50;;
18905;SDS011;9585;51.018;4.282;2022-09-09T07:34:06;4.47;;;1.63;;
18905;SDS011;9585;51.018;4.282;2022-09-09T07:36:34;5.55;;;1.38;;
18905;SDS011;9585;51.018;4.282;2022-09-09T07:39:03;5.05;;;1.25;;
18905;SDS011;9585;51.018;4.282;2022-09-09T07:41:33;4.22;;;1.33;;
18905;SDS011;9585;51.018;4.282;2022-09-09T07:44:08;4.97;;;1.40;;
18905;SDS011;9585;51.018;4.282;2022-09-09T07:46:37;6.45;;;1.75;;
18905;SDS011;9585;51.018;4.282;2022-09-09T07:49:06;5.97;;;1.77;;
18905;SDS011;9585;51.018;4.282;2022-09-09T07:51:35;4.43;;;1.42;;
18905;SDS011;9585;51.018;4.282;2022-09-09T07:54:05;6.80;;;1.77;;
18905;SDS011;9585;51.018;4.282;2022-09-09T07:56:36;4.25;;;1.40;;
18905;SDS011;9585;51.018;4.282;2022-09-09T07:59:09;4.85;;;1.33;;
18905;SDS011;9585;51.018;4.282;2022-09-09T08:01:37;6.80;;;1.40;;
18905;SDS011;9585;51.018;4.282;2022-09-09T08:04:08;5.32;;;1.30;;
18905;SDS011;9585;51.018;4.282;2022-09-09T08:06:40;8.65;;;1.58;;
18905;SDS011;9585;51.018;4.282;2022-09-09T08:09:09;5.53;;;1.40;;
18905;SDS011;9585;51.018;4.282;2022-09-09T08:11:37;5.30;;;1.45;;
18905;SDS011;9585;51.018;4.282;2022-09-09T08:14:06;5.78;;;1.42;;
18905;SDS011;9585;51.018;4.282;2022-09-09T08:16:36;5.20;;;1.60;;
18905;SDS011;9585;51.018;4.282;2022-09-09T08:19:06;5.00;;;1.30;;
18905;SDS011;9585;51.018;4.282;2022-09-09T08:21:35;5.78;;;1.40;;
18905;SDS011;9585;51.018;4.282;2022-09-09T08:24:05;8.48;;;1.52;;
18905;SDS011;9585;51.018;4.282;2022-09-09T08:26:37;5.15;;;1.73;;
18905;SDS011;9585;51.018;4.282;2022-09-09T08:29:07;6.45;;;1.58;;
18905;SDS011;9585;51.018;4.282;2022-09-09T08:31:41;4.07;;;1.30;;
18905;SDS011;9585;51.018;4.282;2022-09-09T08:34:10;5.63;;;1.50;;
18905;SDS011;9585;51.018;4.282;2022-09-09T08:36:38;7.53;;;1.25;;
18905;SDS011;9585;51.018;4.282;2022-09-09T08:39:07;9.85;;;1.70;;
18905;SDS011;9585;51.018;4.282;2022-09-09T08:41:45;5.93;;;1.20;;
18905;SDS011;9585;51.018;4.282;2022-09-09T08:44:50;5.97;;;1.60;;
18905;SDS011;9585;51.018;4.282;2022-09-09T08:47:31;4.07;;;1.30;;
18905;SDS011;9585;51.018;4.282;2022-09-09T08:50:07;4.65;;;1.40;;
18905;SDS011;9585;51.018;4.282;2022-09-09T08:52:49;4.85;;;1.30;;
18905;SDS011;9585;51.018;4.282;2022-09-09T08:55:23;4.97;;;1.55;;
18905;SDS011;9585;51.018;4.282;2022-09-09T08:57:55;7.05;;;1.60;;
18905;SDS011;9585;51.018;4.282;2022-09-09T09:00:30;5.63;;;1.50;;
18905;SDS011;9585;51.018;4.282;2022-09-09T09:03:04;5.30;;;1.60;;
18905;SDS011;9585;51.018;4.282;2022-09-09T09:05:44;4.78;;;1.60;;
18905;SDS011;9585;51.018;4.282;2022-09-09T09:08:20;6.13;;;1.60;;
18905;SDS011;9585;51.018;4.282;2022-09-09T09:10:56;5.55;;;1.40;;
18905;SDS011;9585;51.018;4.282;2022-09-09T09:13:27;4.95;;;1.50;;
18905;SDS011;9585;51.018;4.282;2022-09-09T09:18:57;5.63;;;1.52;;
18905;SDS011;9585;51.018;4.282;2022-09-09T09:21:29;8.65;;;1.83;;
18905;SDS011;9585;51.018;4.282;2022-09-09T09:24:04;3.33;;;1.33;;
18905;SDS011;9585;51.018;4.282;2022-09-09T09:26:40;3.40;;;1.15;;
18905;SDS011;9585;51.018;4.282;2022-09-09T09:29:10;6.10;;;1.90;;
18905;SDS011;9585;51.018;4.282;2022-09-09T09:31:43;4.15;;;1.38;;
18905;SDS011;9585;51.018;4.282;2022-09-09T09:34:14;4.50;;;1.40;;
18905;SDS011;9585;51.018;4.282;2022-09-09T09:36:43;5.88;;;1.63;;
18905;SDS011;9585;51.018;4.282;2022-09-09T09:39:22;4.43;;;1.50;;
18905;SDS011;9585;51.018;4.282;2022-09-09T09:41:53;5.45;;;1.48;;
18905;SDS011;9585;51.018;4.282;2022-09-09T09:44:22;4.43;;;1.50;;
18905;SDS011;9585;51.018;4.282;2022-09-09T09:47:04;6.68;;;1.48;;
18905;SDS011;9585;51.018;4.282;2022-09-09T09:49:34;4.20;;;1.10;;
18905;SDS011;9585;51.018;4.282;2022-09-09T09:52:02;6.80;;;1.45;;
18905;SDS011;9585;51.018;4.282;2022-09-09T09:54:32;4.70;;;1.45;;
18905;SDS011;9585;51.018;4.282;2022-09-09T09:57:09;4.90;;;1.45;;
18905;SDS011;9585;51.018;4.282;2022-09-09T09:59:40;4.25;;;1.27;;
18905;SDS011;9585;51.018;4.282;2022-09-09T10:02:15;5.82;;;1.60;;
18905;SDS011;9585;51.018;4.282;2022-09-09T10:04:45;5.80;;;1.40;;
18905;SDS011;9585;51.018;4.282;2022-09-09T10:07:17;6.10;;;1.40;;
18905;SDS011;9585;51.018;4.282;2022-09-09T10:09:46;6.88;;;1.42;;
18905;SDS011;9585;51.018;4.282;2022-09-09T10:12:19;4.82;;;1.23;;
18905;SDS011;9585;51.018;4.282;2022-09-09T10:14:57;3.60;;;1.27;;
18905;SDS011;9585;51.018;4.282;2022-09-09T10:17:36;4.53;;;1.30;;
18905;SDS011;9585;51.018;4.282;2022-09-09T10:20:14;3.92;;;1.20;;
18905;SDS011;9585;51.018;4.282;2022-09-09T10:22:52;4.65;;;1.17;;
18905;SDS011;9585;51.018;4.282;2022-09-09T10:25:37;5.30;;;1.00;;
18905;SDS011;9585;51.018;4.282;2022-09-09T10:28:28;3.30;;;0.93;;
18905;SDS011;9585;51.018;4.282;2022-09-09T10:31:06;4.90;;;1.30;;
18905;SDS011;9585;51.018;4.282;2022-09-09T10:33:50;3.83;;;1.30;;
18905;SDS011;9585;51.018;4.282;2022-09-09T10:36:28;3.95;;;1.30;;
18905;SDS011;9585;51.018;4.282;2022-09-09T10:38:57;4.25;;;1.50;;
18905;SDS011;9585;51.018;4.282;2022-09-09T10:41:33;4.20;;;1.15;;
18905;SDS011;9585;51.018;4.282;2022-09-09T10:44:14;3.15;;;1.00;;
18905;SDS011;9585;51.018;4.282;2022-09-09T10:46:52;3.55;;;1.10;;
18905;SDS011;9585;51.018;4.282;2022-09-09T10:49:42;3.95;;;1.00;;
18905;SDS011;9585;51.018;4.282;2022-09-09T10:52:21;3.67;;;1.15;;
18905;SDS011;9585;51.018;4.282;2022-09-09T10:54:56;5.53;;;1.20;;
18905;SDS011;9585;51.018;4.282;2022-09-09T10:57:28;4.75;;;1.15;;
18905;SDS011;9585;51.018;4.282;2022-09-09T11:00:03;4.97;;;1.48;;
18905;SDS011;9585;51.018;4.282;2022-09-09T11:02:34;3.72;;;1.23;;
18905;SDS011;9585;51.018;4.282;2022-09-09T11:05:10;4.60;;;1.20;;
18905;SDS011;9585;51.018;4.282;2022-09-09T11:07:47;3.95;;;1.42;;
18905;SDS011;9585;51.018;4.282;2022-09-09T11:10:21;5.18;;;1.27;;
18905;SDS011;9585;51.018;4.282;2022-09-09T11:12:53;4.43;;;1.10;;
18905;SDS011;9585;51.018;4.282;2022-09-09T11:15:28;5.63;;;1.30;;
18905;SDS011;9585;51.018;4.282;2022-09-09T11:18:00;4.20;;;1.20;;
18905;SDS011;9585;51.018;4.282;2022-09-09T11:20:32;3.25;;;0.82;;
18905;SDS011;9585;51.018;4.282;2022-09-09T11:23:01;5.03;;;1.30;;
18905;SDS011;9585;51.018;4.282;2022-09-09T11:25:32;3.42;;;1.08;;
18905;SDS011;9585;51.018;4.282;2022-09-09T11:31:10;3.92;;;1.10;;
18905;SDS011;9585;51.018;4.282;2022-09-09T11:39:49;2.65;;;1.00;;
18905;SDS011;9585;51.018;4.282;2022-09-09T11:42:28;2.38;;;0.70;;
18905;SDS011;9585;51.018;4.282;2022-09-09T11:44:56;2.72;;;0.90;;
18905;SDS011;9585;51.018;4.282;2022-09-09T11:47:24;2.42;;;0.98;;
18905;SDS011;9585;51.018;4.282;2022-09-09T11:49:55;2.22;;;0.80;;
18905;SDS011;9585;51.018;4.282;2022-09-09T11:53:05;2.50;;;0.90;;
18905;SDS011;9585;51.018;4.282;2022-09-09T11:55:48;4.85;;;1.00;;
18905;SDS011;9585;51.018;4.282;2022-09-09T11:58:34;2.70;;;0.88;;
18905;SDS011;9585;51.018;4.282;2022-09-09T12:01:16;4.07;;;0.98;;
18905;SDS011;9585;51.018;4.282;2022-09-09T12:06:54;4.45;;;1.08;;
18905;SDS011;9585;51.018;4.282;2022-09-09T12:09:29;3.80;;;0.90;;
18905;SDS011;9585;51.018;4.282;2022-09-09T12:12:22;3.83;;;1.13;;
18905;SDS011;9585;51.018;4.282;2022-09-09T12:14:55;4.80;;;1.23;;
18905;SDS011;9585;51.018;4.282;2022-09-09T12:17:26;3.15;;;0.88;;
18905;SDS011;9585;51.018;4.282;2022-09-09T12:20:02;3.67;;;1.10;;
18905;SDS011;9585;51.018;4.282;2022-09-09T12:22:37;3.70;;;1.08;;
18905;SDS011;9585;51.018;4.282;2022-09-09T12:25:20;2.25;;;0.90;;
18905;SDS011;9585;51.018;4.282;2022-09-09T12:27:59;1.40;;;1.00;;
18905;SDS011;9585;51.018;4.282;2022-09-09T12:30:34;2.85;;;1.00;;
18905;SDS011;9585;51.018;4.282;2022-09-09T12:33:08;3.60;;;1.25;;
18905;SDS011;9585;51.018;4.282;2022-09-09T12:35:40;3.05;;;1.00;;
18905;SDS011;9585;51.018;4.282;2022-09-09T12:38:12;2.63;;;0.80;;
18905;SDS011;9585;51.018;4.282;2022-09-09T12:40:53;3.53;;;0.90;;
18905;SDS011;9585;51.018;4.282;2022-09-09T12:43:22;1.77;;;0.80;;
18905;SDS011;9585;51.018;4.282;2022-09-09T12:45:50;2.75;;;0.90;;
18905;SDS011;9585;51.018;4.282;2022-09-09T12:48:24;4.55;;;1.20;;
18905;SDS011;9585;51.018;4.282;2022-09-09T12:50:57;4.60;;;1.20;;
18905;SDS011;9585;51.018;4.282;2022-09-09T12:53:26;3.15;;;0.90;;
18905;SDS011;9585;51.018;4.282;2022-09-09T12:55:58;2.72;;;0.90;;
18905;SDS011;9585;51.018;4.282;2022-09-09T12:58:29;2.88;;;0.90;;
18905;SDS011;9585;51.018;4.282;2022-09-09T13:00:58;2.28;;;1.05;;
18905;SDS011;9585;51.018;4.282;2022-09-09T13:03:29;3.95;;;1.13;;
18905;SDS011;9585;51.018;4.282;2022-09-09T13:06:10;2.85;;;0.98;;
18905;SDS011;9585;51.018;4.282;2022-09-09T13:08:39;2.17;;;1.02;;
18905;SDS011;9585;51.018;4.282;2022-09-09T13:11:10;3.17;;;0.85;;
18905;SDS011;9585;51.018;4.282;2022-09-09T13:13:42;3.42;;;1.00;;
18905;SDS011;9585;51.018;4.282;2022-09-09T13:16:20;3.22;;;0.90;;
18905;SDS011;9585;51.018;4.282;2022-09-09T13:18:49;3.22;;;1.13;;
18905;SDS011;9585;51.018;4.282;2022-09-09T13:21:17;3.38;;;0.90;;
18905;SDS011;9585;51.018;4.282;2022-09-09T13:23:48;1.40;;;0.63;;
18905;SDS011;9585;51.018;4.282;2022-09-09T13:26:22;2.53;;;0.80;;
18905;SDS011;9585;51.018;4.282;2022-09-09T13:28:51;2.58;;;0.98;;
18905;SDS011;9585;51.018;4.282;2022-09-09T13:31:23;2.33;;;1.00;;
18905;SDS011;9585;51.018;4.282;2022-09-09T13:33:55;2.72;;;0.88;;
18905;SDS011;9585;51.018;4.282;2022-09-09T13:36:29;2.10;;;0.95;;
18905;SDS011;9585;51.018;4.282;2022-09-09T13:38:58;4.63;;;1.10;;
18905;SDS011;9585;51.018;4.282;2022-09-09T13:41:30;1.98;;;0.80;;
18905;SDS011;9585;51.018;4.282;2022-09-09T13:44:00;2.05;;;0.90;;
18905;SDS011;9585;51.018;4.282;2022-09-09T13:46:30;3.47;;;0.80;;
18905;SDS011;9585;51.018;4.282;2022-09-09T13:49:00;2.08;;;0.85;;
18905;SDS011;9585;51.018;4.282;2022-09-09T13:51:44;2.95;;;0.95;;
18905;SDS011;9585;51.018;4.282;2022-09-09T13:54:15;2.55;;;1.30;;
18905;SDS011;9585;51.018;4.282;2022-09-09T13:56:46;2.42;;;1.00;;
18905;SDS011;9585;51.018;4.282;2022-09-09T13:59:15;2.30;;;1.00;;
18905;SDS011;9585;51.018;4.282;2022-09-09T14:01:45;3.92;;;1.00;;
18905;SDS011;9585;51.018;4.282;2022-09-09T14:04:14;2.72;;;1.05;;
18905;SDS011;9585;51.018;4.282;2022-09-09T14:06:42;2.92;;;0.70;;
18905;SDS011;9585;51.018;4.282;2022-09-09T14:09:10;1.20;;;0.70;;
18905;SDS011;9585;51.018;4.282;2022-09-09T14:11:38;4.28;;;0.90;;
18905;SDS011;9585;51.018;4.282;2022-09-09T14:14:07;3.20;;;0.82;;
18905;SDS011;9585;51.018;4.282;2022-09-09T14:16:35;3.47;;;0.70;;
18905;SDS011;9585;51.018;4.282;2022-09-09T14:19:03;2.33;;;0.80;;
18905;SDS011;9585;51.018;4.282;2022-09-09T14:21:30;3.65;;;0.75;;
18905;SDS011;9585;51.018;4.282;2022-09-09T14:23:58;4.07;;;1.10;;
18905;SDS011;9585;51.018;4.282;2022-09-09T14:26:25;3.15;;;0.85;;
18905;SDS011;9585;51.018;4.282;2022-09-09T14:28:54;1.95;;;0.90;;
18905;SDS011;9585;51.018;4.282;2022-09-09T14:31:23;1.70;;;0.88;;
18905;SDS011;9585;51.018;4.282;2022-09-09T14:33:51;2.33;;;0.82;;
18905;SDS011;9585;51.018;4.282;2022-09-09T14:36:18;2.63;;;0.88;;
18905;SDS011;9585;51.018;4.282;2022-09-09T14:38:47;2.55;;;0.80;;
18905;SDS011;9585;51.018;4.282;2022-09-09T14:41:16;2.70;;;0.70;;
18905;SDS011;9585;51.018;4.282;2022-09-09T14:43:48;2.47;;;0.90;;
18905;SDS011;9585;51.018;4.282;2022-09-09T14:46:19;4.03;;;0.98;;
18905;SDS011;9585;51.018;4.282;2022-09-09T14:48:48;2.90;;;0.95;;
18905;SDS011;9585;51.018;4.282;2022-09-09T14:51:16;2.10;;;1.00;;
18905;SDS011;9585;51.018;4.282;2022-09-09T14:53:47;1.52;;;0.80;;
18905;SDS011;9585;51.018;4.282;2022-09-09T14:56:18;2.80;;;1.15;;
18905;SDS011;9585;51.018;4.282;2022-09-09T14:58:48;3.55;;;1.05;;
18905;SDS011;9585;51.018;4.282;2022-09-09T15:01:16;2.75;;;1.23;;
18905;SDS011;9585;51.018;4.282;2022-09-09T15:03:50;1.35;;;0.75;;
18905;SDS011;9585;51.018;4.282;2022-09-09T15:06:18;1.70;;;0.88;;
18905;SDS011;9585;51.018;4.282;2022-09-09T15:08:46;2.05;;;0.70;;
18905;SDS011;9585;51.018;4.282;2022-09-09T15:11:16;2.75;;;0.90;;
18905;SDS011;9585;51.018;4.282;2022-09-09T15:13:43;8.27;;;1.33;;
18905;SDS011;9585;51.018;4.282;2022-09-09T15:16:13;6.22;;;1.60;;
18905;SDS011;9585;51.018;4.282;2022-09-09T15:18:41;5.22;;;1.20;;
18905;SDS011;9585;51.018;4.282;2022-09-09T15:21:12;1.02;;;0.63;;
18905;SDS011;9585;51.018;4.282;2022-09-09T15:23:40;1.58;;;0.77;;
18905;SDS011;9585;51.018;4.282;2022-09-09T15:26:13;1.58;;;0.70;;
18905;SDS011;9585;51.018;4.282;2022-09-09T15:28:41;2.35;;;0.95;;
18905;SDS011;9585;51.018;4.282;2022-09-09T15:31:12;3.42;;;0.80;;
18905;SDS011;9585;51.018;4.282;2022-09-09T15:33:46;2.22;;;0.85;;
18905;SDS011;9585;51.018;4.282;2022-09-09T15:36:16;3.88;;;0.90;;
18905;SDS011;9585;51.018;4.282;2022-09-09T15:38:45;2.55;;;1.20;;
18905;SDS011;9585;51.018;4.282;2022-09-09T15:41:13;3.17;;;1.17;;
18905;SDS011;9585;51.018;4.282;2022-09-09T15:43:43;1.38;;;0.85;;
18905;SDS011;9585;51.018;4.282;2022-09-09T15:49:05;2.03;;;1.05;;
18905;SDS011;9585;51.018;4.282;2022-09-09T15:51:37;3.60;;;1.20;;
18905;SDS011;9585;51.018;4.282;2022-09-09T15:54:07;2.03;;;0.90;;
18905;SDS011;9585;51.018;4.282;2022-09-09T15:56:36;2.95;;;1.15;;